createdAt,value
2018-05-01T00:00:10.411Z,997.58
2018-05-01T00:01:10.467Z,997.55
2018-05-01T00:02:10.525Z,997.60
2018-05-01T00:03:10.581Z,997.49
2018-05-01T00:04:10.637Z,997.56
2018-05-01T00:05:10.695Z,997.46
2018-05-01T00:06:10.756Z,997.46
2018-05-01T00:07:10.808Z,997.58
2018-05-01T00:08:10.866Z,997.56
2018-05-01T00:09:10.922Z,997.61
2018-05-01T00:10:10.978Z,997.60
2018-05-01T00:11:11.037Z,997.61
2018-05-01T00:12:11.093Z,997.60
2018-05-01T00:13:11.150Z,997.58
2018-05-01T00:14:11.208Z,997.59
2018-05-01T00:15:11.263Z,997.64
2018-05-01T00:16:11.319Z,997.60
2018-05-01T00:17:11.376Z,997.63
2018-05-01T00:18:11.435Z,997.71
2018-05-01T00:19:11.491Z,997.65
2018-05-01T00:20:11.549Z,997.64
2018-05-01T00:21:11.605Z,997.68
2018-05-01T00:22:11.662Z,997.73
2018-05-01T00:23:11.728Z,997.71
2018-05-01T00:24:11.775Z,997.76
2018-05-01T00:25:11.832Z,997.72
2018-05-01T00:26:11.889Z,997.75
2018-05-01T00:27:11.945Z,997.74
2018-05-01T00:28:12.003Z,997.78
2018-05-01T00:29:12.059Z,997.78
2018-05-01T00:30:12.115Z,997.85
2018-05-01T00:31:12.173Z,997.78
2018-05-01T00:32:12.230Z,997.89
2018-05-01T00:33:12.287Z,997.81
2018-05-01T00:34:12.345Z,997.79
2018-05-01T00:35:12.403Z,997.86
2018-05-01T00:36:12.459Z,997.84
2018-05-01T00:37:12.520Z,997.91
2018-05-01T00:38:12.569Z,997.88
2018-05-01T00:39:12.627Z,997.85
2018-05-01T00:40:12.685Z,997.88
2018-05-01T00:41:12.741Z,997.82
2018-05-01T00:42:12.799Z,997.88
2018-05-01T00:43:12.855Z,997.93
2018-05-01T00:44:12.912Z,997.88
2018-05-01T00:45:12.968Z,997.85
2018-05-01T00:46:13.026Z,997.94
2018-05-01T00:47:13.083Z,997.99
2018-05-01T00:48:13.140Z,997.91
2018-05-01T00:49:13.195Z,997.96
2018-05-01T00:50:13.254Z,997.96
2018-05-01T00:51:13.309Z,997.88
2018-05-01T00:52:13.367Z,997.95
2018-05-01T00:53:13.423Z,997.95
2018-05-01T00:54:13.479Z,998.03
2018-05-01T00:55:13.537Z,998.06
2018-05-01T00:56:13.598Z,997.96
2018-05-01T00:57:13.650Z,997.96
2018-05-01T00:58:13.707Z,998.03
2018-05-01T00:59:13.765Z,997.88
2018-05-01T01:00:13.820Z,998.01
2018-05-01T01:01:13.876Z,998.01
2018-05-01T01:02:13.936Z,998.05
2018-05-01T01:03:13.990Z,998.03
2018-05-01T01:04:14.048Z,998.02
2018-05-01T01:05:14.105Z,997.88
2018-05-01T01:06:14.161Z,998.14
2018-05-01T01:07:14.217Z,998.05
2018-05-01T01:08:14.275Z,998.06
2018-05-01T01:09:14.329Z,998.07
2018-05-01T01:10:14.387Z,998.02
2018-05-01T01:11:14.443Z,998.12
2018-05-01T01:12:14.502Z,998.04
2018-05-01T01:13:14.558Z,998.02
2018-05-01T01:14:14.614Z,998.08
2018-05-01T01:15:14.670Z,998.03
2018-05-01T01:16:14.730Z,998.00
2018-05-01T01:17:14.785Z,998.08
2018-05-01T01:18:14.840Z,998.07
2018-05-01T01:19:15.149Z,998.04
2018-05-01T01:20:14.954Z,998.05
2018-05-01T01:21:15.012Z,998.05
2018-05-01T01:22:15.068Z,998.05
2018-05-01T01:23:15.125Z,997.98
2018-05-01T01:24:15.181Z,998.04
2018-05-01T01:25:15.237Z,998.11
2018-05-01T01:26:15.295Z,998.17
2018-05-01T01:27:15.351Z,998.13
2018-05-01T01:28:15.407Z,998.21
2018-05-01T01:29:15.465Z,998.14
2018-05-01T01:30:15.520Z,998.16
2018-05-01T01:31:15.577Z,998.12
2018-05-01T01:32:15.635Z,998.15
2018-05-01T01:33:15.690Z,998.21
2018-05-01T01:34:15.747Z,998.30
2018-05-01T01:35:15.804Z,998.21
2018-05-01T01:36:15.861Z,998.19
2018-05-01T01:37:15.918Z,998.25
2018-05-01T01:38:15.974Z,998.26
2018-05-01T01:39:16.031Z,998.26
2018-05-01T01:40:16.088Z,998.27
2018-05-01T01:41:16.143Z,998.28
2018-05-01T01:42:16.208Z,998.29
2018-05-01T01:43:16.257Z,998.29
2018-05-01T01:44:16.313Z,998.31
2018-05-01T01:45:16.372Z,998.40
2018-05-01T01:46:16.429Z,998.32
2018-05-01T01:47:16.486Z,998.24
2018-05-01T01:48:16.540Z,998.34
2018-05-01T01:49:16.596Z,998.40
2018-05-01T01:50:16.657Z,998.40
2018-05-01T01:51:16.710Z,998.40
2018-05-01T01:52:16.768Z,998.38
2018-05-01T01:53:16.825Z,998.43
2018-05-01T01:54:16.881Z,998.39
2018-05-01T01:55:16.937Z,998.44
2018-05-01T01:56:16.994Z,998.47
2018-05-01T01:57:17.049Z,998.49
2018-05-01T01:58:17.107Z,998.46
2018-05-01T01:59:17.164Z,998.50
2018-05-01T02:00:17.220Z,998.59
2018-05-01T02:01:17.277Z,998.56
2018-05-01T02:02:17.334Z,998.56
2018-05-01T02:03:17.390Z,998.58
2018-05-01T02:04:17.447Z,998.56
2018-05-01T02:05:17.503Z,998.70
2018-05-01T02:06:17.560Z,998.58
2018-05-01T02:07:17.617Z,998.60
2018-05-01T02:08:17.674Z,998.67
2018-05-01T02:09:17.730Z,998.69
2018-05-01T02:10:17.787Z,998.62
2018-05-01T02:11:17.846Z,998.62
2018-05-01T02:12:17.899Z,998.63
2018-05-01T02:13:17.955Z,998.76
2018-05-01T02:14:18.019Z,998.65
2018-05-01T02:15:18.069Z,998.63
2018-05-01T02:16:18.126Z,998.71
2018-05-01T02:17:18.181Z,998.75
2018-05-01T02:18:18.239Z,998.80
2018-05-01T02:19:18.296Z,998.71
2018-05-01T02:20:18.354Z,998.79
2018-05-01T02:21:18.408Z,998.74
2018-05-01T02:22:18.547Z,998.86
2018-05-01T02:23:18.524Z,998.75
2018-05-01T02:24:18.579Z,998.70
2018-05-01T02:25:18.635Z,998.79
2018-05-01T02:26:18.695Z,998.86
2018-05-01T02:27:18.749Z,998.85
2018-05-01T02:28:18.806Z,998.78
2018-05-01T02:29:18.861Z,998.79
2018-05-01T02:30:18.919Z,998.81
2018-05-01T02:31:19.552Z,998.90
2018-05-01T02:32:19.034Z,998.87
2018-05-01T02:33:19.114Z,998.87
2018-05-01T02:34:19.145Z,998.93
2018-05-01T02:35:19.201Z,998.91
2018-05-01T02:36:19.259Z,998.81
2018-05-01T02:37:19.314Z,998.88
2018-05-01T02:38:19.372Z,998.95
2018-05-01T02:39:19.428Z,998.89
2018-05-01T02:40:19.488Z,998.86
2018-05-01T02:41:19.557Z,998.91
2018-05-01T02:42:19.597Z,998.93
2018-05-01T02:43:19.654Z,998.95
2018-05-01T02:44:19.713Z,998.92
2018-05-01T02:45:19.769Z,998.91
2018-05-01T02:46:19.824Z,998.88
2018-05-01T02:47:19.881Z,998.92
2018-05-01T02:48:19.937Z,998.90
2018-05-01T02:49:19.994Z,998.95
2018-05-01T02:50:20.050Z,998.90
2018-05-01T02:51:20.106Z,999.00
2018-05-01T02:52:20.163Z,998.99
2018-05-01T02:53:20.221Z,999.03
2018-05-01T02:54:20.277Z,999.04
2018-05-01T02:55:20.337Z,998.99
2018-05-01T02:56:20.389Z,999.04
2018-05-01T02:57:20.447Z,999.07
2018-05-01T02:58:20.501Z,999.14
2018-05-01T02:59:20.559Z,999.15
2018-05-01T03:00:20.617Z,999.20
2018-05-01T03:01:20.689Z,999.22
2018-05-01T03:02:20.737Z,999.28
2018-05-01T03:03:20.785Z,999.23
2018-05-01T03:04:20.841Z,999.24
2018-05-01T03:05:20.897Z,999.29
2018-05-01T03:06:20.957Z,999.30
2018-05-01T03:07:21.011Z,999.22
2018-05-01T03:08:21.068Z,999.28
2018-05-01T03:09:21.124Z,999.33
2018-05-01T03:10:21.180Z,999.28
2018-05-01T03:11:21.236Z,999.30
2018-05-01T03:12:21.293Z,999.27
2018-05-01T03:13:21.349Z,999.31
2018-05-01T03:14:21.406Z,999.29
2018-05-01T03:15:21.462Z,999.34
2018-05-01T03:16:21.769Z,999.34
2018-05-01T03:17:21.576Z,999.29
2018-05-01T03:18:21.631Z,999.34
2018-05-01T03:19:21.690Z,999.27
2018-05-01T03:20:21.744Z,999.34
2018-05-01T03:21:21.800Z,999.28
2018-05-01T03:22:21.857Z,999.33
2018-05-01T03:23:21.912Z,999.42
2018-05-01T03:24:21.970Z,999.37
2018-05-01T03:25:22.039Z,999.34
2018-05-01T03:26:22.085Z,999.35
2018-05-01T03:27:22.138Z,999.35
2018-05-01T03:28:22.195Z,999.28
2018-05-01T03:29:22.250Z,999.43
2018-05-01T03:30:22.310Z,999.48
2018-05-01T03:31:22.364Z,999.41
2018-05-01T03:32:22.425Z,999.47
2018-05-01T03:33:22.477Z,999.52
2018-05-01T03:34:22.534Z,999.50
2018-05-01T03:35:22.590Z,999.52
2018-05-01T03:36:22.647Z,999.56
2018-05-01T03:37:22.704Z,999.52
2018-05-01T03:38:22.759Z,999.49
2018-05-01T03:39:22.815Z,999.51
2018-05-01T03:40:22.872Z,999.54
2018-05-01T03:41:22.928Z,999.49
2018-05-01T03:42:22.985Z,999.55
2018-05-01T03:43:23.043Z,999.54
2018-05-01T03:44:23.098Z,999.49
2018-05-01T03:45:23.154Z,999.51
2018-05-01T03:46:23.210Z,999.51
2018-05-01T03:47:23.267Z,999.53
2018-05-01T03:48:23.322Z,999.59
2018-05-01T03:49:23.380Z,999.61
2018-05-01T03:50:23.435Z,999.56
2018-05-01T03:51:23.492Z,999.60
2018-05-01T03:52:23.550Z,999.59
2018-05-01T03:53:23.605Z,999.60
2018-05-01T03:54:23.660Z,999.60
2018-05-01T03:55:23.720Z,999.61
2018-05-01T03:56:23.773Z,999.63
2018-05-01T03:57:23.831Z,999.63
2018-05-01T03:58:23.887Z,999.54
2018-05-01T03:59:23.945Z,999.65
2018-05-01T04:00:24.004Z,999.69
2018-05-01T04:01:24.056Z,999.70
2018-05-01T04:02:24.113Z,999.74
2018-05-01T04:03:24.170Z,999.78
2018-05-01T04:04:24.227Z,999.76
2018-05-01T04:05:24.282Z,999.67
2018-05-01T04:06:24.338Z,999.79
2018-05-01T04:07:24.396Z,999.79
2018-05-01T04:08:24.452Z,999.83
2018-05-01T04:09:24.509Z,999.84
2018-05-01T04:10:24.566Z,999.89
2018-05-01T04:11:24.645Z,999.88
2018-05-01T04:12:24.929Z,999.90
2018-05-01T04:13:24.736Z,999.92
2018-05-01T04:14:24.792Z,999.90
2018-05-01T04:15:24.849Z,999.90
2018-05-01T04:16:24.905Z,999.95
2018-05-01T04:17:24.962Z,999.96
2018-05-01T04:18:25.017Z,1000.02
2018-05-01T04:19:25.074Z,1000.02
2018-05-01T04:20:25.131Z,1000.02
2018-05-01T04:21:25.188Z,1000.05
2018-05-01T04:22:25.242Z,1000.06
2018-05-01T04:23:25.299Z,1000.10
2018-05-01T04:24:25.362Z,1000.09
2018-05-01T04:25:25.472Z,1000.15
2018-05-01T04:26:25.471Z,1000.14
2018-05-01T04:27:25.526Z,1000.04
2018-05-01T04:28:25.583Z,1000.09
2018-05-01T04:29:26.039Z,1000.04
2018-05-01T04:30:25.718Z,1000.05
2018-05-01T04:31:25.763Z,1000.04
2018-05-01T04:32:25.809Z,1000.03
2018-05-01T04:33:25.864Z,1000.16
2018-05-01T04:34:25.924Z,1000.09
2018-05-01T04:35:25.978Z,1000.14
2018-05-01T04:36:26.035Z,1000.19
2018-05-01T04:37:26.091Z,1000.17
2018-05-01T04:38:26.147Z,1000.10
2018-05-01T04:39:26.205Z,1000.16
2018-05-01T04:40:26.260Z,1000.20
2018-05-01T04:41:26.315Z,1000.24
2018-05-01T04:42:26.375Z,1000.24
2018-05-01T04:43:26.430Z,1000.24
2018-05-01T04:44:26.485Z,1000.21
2018-05-01T04:45:26.543Z,1000.28
2018-05-01T04:46:26.600Z,1000.24
2018-05-01T04:47:26.655Z,1000.16
2018-05-01T04:48:26.711Z,1000.18
2018-05-01T04:49:26.768Z,1000.17
2018-05-01T04:50:26.827Z,1000.23
2018-05-01T04:51:26.883Z,1000.24
2018-05-01T04:52:26.939Z,1000.28
2018-05-01T04:53:26.996Z,1000.31
2018-05-01T04:54:27.052Z,1000.20
2018-05-01T04:55:27.114Z,1000.30
2018-05-01T04:56:27.166Z,1000.39
2018-05-01T04:57:27.222Z,1000.45
2018-05-01T04:58:27.322Z,1000.39
2018-05-01T04:59:27.336Z,1000.46
2018-05-01T05:00:27.393Z,1000.38
2018-05-01T05:01:27.450Z,1000.42
2018-05-01T05:02:27.507Z,1000.48
2018-05-01T05:03:27.564Z,1000.33
2018-05-01T05:04:27.621Z,1000.47
2018-05-01T05:05:27.677Z,1000.49
2018-05-01T05:06:27.734Z,1000.51
2018-05-01T05:07:27.792Z,1000.56
2018-05-01T05:08:27.853Z,1000.54
2018-05-01T05:09:27.979Z,1000.60
2018-05-01T05:10:27.965Z,1000.65
2018-05-01T05:11:28.020Z,1000.66
2018-05-01T05:12:28.078Z,1000.72
2018-05-01T05:13:28.133Z,1000.68
2018-05-01T05:14:28.191Z,1000.73
2018-05-01T05:15:28.248Z,1000.72
2018-05-01T05:16:28.304Z,1000.72
2018-05-01T05:17:28.360Z,1000.70
2018-05-01T05:18:28.419Z,1000.73
2018-05-01T05:19:28.475Z,1000.78
2018-05-01T05:20:28.533Z,1000.81
2018-05-01T05:21:28.590Z,1000.79
2018-05-01T05:22:28.648Z,1000.84
2018-05-01T05:23:28.709Z,1000.89
2018-05-01T05:24:28.762Z,1000.89
2018-05-01T05:25:28.969Z,1000.88
2018-05-01T05:26:28.879Z,1000.79
2018-05-01T05:27:28.937Z,1000.81
2018-05-01T05:28:28.993Z,1000.84
2018-05-01T05:29:29.048Z,1000.77
2018-05-01T05:30:29.106Z,1000.84
2018-05-01T05:31:29.167Z,1000.85
2018-05-01T05:32:29.223Z,1000.83
2018-05-01T05:33:29.278Z,1000.96
2018-05-01T05:34:29.334Z,1000.94
2018-05-01T05:35:29.392Z,1000.93
2018-05-01T05:36:29.452Z,1000.92
2018-05-01T05:37:29.508Z,1000.97
2018-05-01T05:38:29.566Z,1000.90
2018-05-01T05:39:29.624Z,1000.99
2018-05-01T05:40:29.680Z,1001.02
2018-05-01T05:41:29.888Z,1001.02
2018-05-01T05:42:29.796Z,1000.96
2018-05-01T05:43:29.856Z,1001.03
2018-05-01T05:44:29.913Z,1001.12
2018-05-01T05:45:29.971Z,1001.01
2018-05-01T05:46:30.028Z,1001.04
2018-05-01T05:47:30.083Z,1001.03
2018-05-01T05:48:30.142Z,1001.04
2018-05-01T05:49:30.198Z,1001.03
2018-05-01T05:50:30.256Z,1001.02
2018-05-01T05:51:30.316Z,1000.95
2018-05-01T05:52:30.373Z,1000.97
2018-05-01T05:53:30.433Z,1001.09
2018-05-01T05:54:30.491Z,1001.13
2018-05-01T05:55:30.547Z,1001.12
2018-05-01T05:56:30.609Z,1001.15
2018-05-01T05:57:30.663Z,1001.28
2018-05-01T05:58:30.720Z,1001.33
2018-05-01T05:59:30.794Z,1001.38
2018-05-01T06:00:30.841Z,1001.37
2018-05-01T06:01:30.893Z,1001.38
2018-05-01T06:02:30.952Z,1001.42
2018-05-01T06:03:31.014Z,1001.52
2018-05-01T06:04:31.068Z,1001.54
2018-05-01T06:05:31.124Z,1001.39
2018-05-01T06:06:31.184Z,1001.36
2018-05-01T06:07:31.245Z,1001.29
2018-05-01T06:08:31.299Z,1001.42
2018-05-01T06:09:31.357Z,1001.34
2018-05-01T06:10:31.566Z,1001.39
2018-05-01T06:11:31.475Z,1001.52
2018-05-01T06:12:31.531Z,1001.47
2018-05-01T06:13:31.660Z,1001.57
2018-05-01T06:14:31.645Z,1001.50
2018-05-01T06:15:31.704Z,1001.54
2018-05-01T06:16:31.767Z,1001.56
2018-05-01T06:17:31.819Z,1001.61
2018-05-01T06:18:31.877Z,1001.54
2018-05-01T06:19:31.936Z,1001.61
2018-05-01T06:20:31.994Z,1001.60
2018-05-01T06:21:32.050Z,1001.59
2018-05-01T06:22:32.136Z,1001.65
2018-05-01T06:23:32.168Z,1001.62
2018-05-01T06:24:32.229Z,1001.62
2018-05-01T06:25:32.281Z,1001.68
2018-05-01T06:26:32.340Z,1001.59
2018-05-01T06:27:32.398Z,1001.57
2018-05-01T06:28:32.456Z,1001.56
2018-05-01T06:29:32.513Z,1001.57
2018-05-01T06:30:32.569Z,1001.63
2018-05-01T06:31:32.627Z,1001.63
2018-05-01T06:32:32.686Z,1001.67
2018-05-01T06:33:32.741Z,1001.70
2018-05-01T06:34:32.802Z,1001.70
2018-05-01T06:35:32.857Z,1001.69
2018-05-01T06:36:32.920Z,1001.63
2018-05-01T06:37:33.052Z,1001.66
2018-05-01T06:38:33.030Z,1001.68
2018-05-01T06:39:33.087Z,1001.80
2018-05-01T06:40:33.146Z,1001.72
2018-05-01T06:41:33.202Z,1001.73
2018-05-01T06:42:33.260Z,1001.68
2018-05-01T06:43:33.318Z,1001.71
2018-05-01T06:44:33.376Z,1001.91
2018-05-01T06:45:33.433Z,1001.98
2018-05-01T06:46:33.491Z,1001.86
2018-05-01T06:47:33.550Z,1001.86
2018-05-01T06:48:33.608Z,1001.79
2018-05-01T06:49:33.665Z,1001.83
2018-05-01T06:50:33.723Z,1001.82
2018-05-01T06:51:33.782Z,1001.87
2018-05-01T06:52:33.839Z,1001.94
2018-05-01T06:53:33.899Z,1001.86
2018-05-01T06:54:33.956Z,1001.99
2018-05-01T06:55:34.265Z,1001.88
2018-05-01T06:56:34.073Z,1001.94
2018-05-01T06:57:34.130Z,1001.82
2018-05-01T06:58:34.188Z,1001.80
2018-05-01T06:59:34.262Z,1001.87
2018-05-01T07:00:34.306Z,1002.01
2018-05-01T07:01:34.402Z,1002.17
2018-05-01T07:02:34.422Z,1002.03
2018-05-01T07:03:34.480Z,1002.03
2018-05-01T07:04:34.680Z,1001.99
2018-05-01T07:05:34.597Z,1001.95
2018-05-01T07:06:34.656Z,1001.97
2018-05-01T07:07:34.712Z,1001.97
2018-05-01T07:08:34.772Z,1002.09
2018-05-01T07:09:34.830Z,1002.09
2018-05-01T07:10:34.888Z,1002.08
2018-05-01T07:11:34.947Z,1002.08
2018-05-01T07:12:35.006Z,1002.08
2018-05-01T07:13:35.063Z,1002.04
2018-05-01T07:14:35.122Z,1002.10
2018-05-01T07:15:35.180Z,1002.09
2018-05-01T07:16:35.239Z,1002.05
2018-05-01T07:17:35.298Z,1002.14
2018-05-01T07:18:35.356Z,1002.08
2018-05-01T07:19:35.415Z,1002.13
2018-05-01T07:20:35.474Z,1002.17
2018-05-01T07:21:35.532Z,1002.18
2018-05-01T07:22:35.591Z,1002.18
2018-05-01T07:23:35.800Z,1002.17
2018-05-01T07:24:35.709Z,1002.15
2018-05-01T07:25:35.767Z,1002.06
2018-05-01T07:26:35.826Z,1002.00
2018-05-01T07:27:35.928Z,1002.06
2018-05-01T07:28:35.946Z,1002.06
2018-05-01T07:29:36.001Z,1002.09
2018-05-01T07:30:36.060Z,1002.02
2018-05-01T07:31:36.122Z,1002.10
2018-05-01T07:32:36.182Z,1002.06
2018-05-01T07:33:36.239Z,1002.18
2018-05-01T07:34:36.293Z,1002.37
2018-05-01T07:35:36.378Z,1002.24
2018-05-01T07:36:36.411Z,1002.19
2018-05-01T07:37:36.470Z,1002.27
2018-05-01T07:38:36.529Z,1002.20
2018-05-01T07:39:36.586Z,1002.24
2018-05-01T07:40:36.648Z,1002.15
2018-05-01T07:41:36.726Z,1002.31
2018-05-01T07:42:36.764Z,1002.28
2018-05-01T07:43:36.824Z,1002.21
2018-05-01T07:44:36.883Z,1002.27
2018-05-01T07:45:36.940Z,1002.33
2018-05-01T07:46:36.998Z,1002.16
2018-05-01T07:47:37.057Z,1002.37
2018-05-01T07:48:37.118Z,1002.40
2018-05-01T07:49:37.176Z,1002.37
2018-05-01T07:50:37.238Z,1002.50
2018-05-01T07:51:37.294Z,1002.44
2018-05-01T07:52:37.353Z,1002.38
2018-05-01T07:53:37.414Z,1002.57
2018-05-01T07:54:37.470Z,1002.47
2018-05-01T07:55:37.529Z,1002.49
2018-05-01T07:56:37.588Z,1002.44
2018-05-01T07:57:37.648Z,1002.43
2018-05-01T07:58:37.707Z,1002.41
2018-05-01T07:59:37.767Z,1002.49
2018-05-01T08:00:37.827Z,1002.40
2018-05-01T08:01:37.886Z,1002.44
2018-05-01T08:02:37.945Z,1002.61
2018-05-01T08:03:38.004Z,1002.52
2018-05-01T08:04:38.064Z,1002.53
2018-05-01T08:05:38.122Z,1002.58
2018-05-01T08:06:38.183Z,1002.35
2018-05-01T08:07:38.242Z,1002.52
2018-05-01T08:08:38.309Z,1002.42
2018-05-01T08:09:38.361Z,1002.49
2018-05-01T08:10:38.421Z,1002.36
2018-05-01T08:11:38.484Z,1002.52
2018-05-01T08:12:38.540Z,1002.41
2018-05-01T08:13:38.604Z,1002.49
2018-05-01T08:14:38.910Z,1002.63
2018-05-01T08:15:38.718Z,1002.60
2018-05-01T08:16:38.778Z,1002.49
2018-05-01T08:17:38.836Z,1002.49
2018-05-01T08:18:38.926Z,1002.35
2018-05-01T08:19:38.954Z,1002.59
2018-05-01T08:20:39.014Z,1002.53
2018-05-01T08:21:39.072Z,1002.50
2018-05-01T08:22:39.132Z,1002.53
2018-05-01T08:23:39.192Z,1002.43
2018-05-01T08:24:39.251Z,1002.47
2018-05-01T08:25:39.309Z,1002.49
2018-05-01T08:26:39.367Z,1002.49
2018-05-01T08:27:39.428Z,1002.46
2018-05-01T08:28:39.488Z,1002.46
2018-05-01T08:29:39.546Z,1002.50
2018-05-01T08:30:39.656Z,1002.19
2018-05-01T08:31:39.664Z,1002.45
2018-05-01T08:32:39.726Z,1002.42
2018-05-01T08:33:39.781Z,1002.33
2018-05-01T08:34:39.841Z,1002.44
2018-05-01T08:35:39.899Z,1002.61
2018-05-01T08:36:39.957Z,1002.53
2018-05-01T08:37:40.077Z,1002.59
2018-05-01T08:38:40.078Z,1002.53
2018-05-01T08:39:40.136Z,1002.59
2018-05-01T08:40:40.195Z,1002.58
2018-05-01T08:41:40.253Z,1002.54
2018-05-01T08:42:40.313Z,1002.41
2018-05-01T08:43:40.372Z,1002.48
2018-05-01T08:44:40.431Z,1002.58
2018-05-01T08:45:40.489Z,1002.51
2018-05-01T08:46:40.548Z,1002.55
2018-05-01T08:47:40.608Z,1002.42
2018-05-01T08:48:40.667Z,1002.53
2018-05-01T08:49:40.725Z,1002.64
2018-05-01T08:50:40.934Z,1002.62
2018-05-01T08:51:40.847Z,1002.89
2018-05-01T08:52:40.904Z,1002.91
2018-05-01T08:53:40.961Z,1002.94
2018-05-01T08:54:41.021Z,1002.63
2018-05-01T08:55:41.081Z,1002.75
2018-05-01T08:56:41.147Z,1002.94
2018-05-01T08:57:41.199Z,1003.11
2018-05-01T08:58:41.260Z,1002.88
2018-05-01T08:59:41.328Z,1002.95
2018-05-01T09:00:41.380Z,1002.84
2018-05-01T09:01:41.689Z,1002.91
2018-05-01T09:02:42.049Z,1002.88
2018-05-01T09:03:41.558Z,1002.94
2018-05-01T09:04:41.619Z,1002.97
2018-05-01T09:05:41.678Z,1002.84
2018-05-01T09:06:41.739Z,1002.85
2018-05-01T09:07:41.799Z,1002.69
2018-05-01T09:08:41.861Z,1002.86
2018-05-01T09:09:41.919Z,1002.93
2018-05-01T09:10:41.978Z,1002.94
2018-05-01T09:11:42.042Z,1002.78
2018-05-01T09:12:42.100Z,1002.92
2018-05-01T09:13:42.160Z,1003.01
2018-05-01T09:14:42.220Z,1003.16
2018-05-01T09:15:42.280Z,1003.17
2018-05-01T09:16:42.343Z,1003.16
2018-05-01T09:17:42.419Z,1003.11
2018-05-01T09:18:42.460Z,1003.15
2018-05-01T09:19:42.520Z,1003.28
2018-05-01T09:20:42.581Z,1003.27
2018-05-01T09:21:42.644Z,1003.07
2018-05-01T09:22:42.701Z,1003.04
2018-05-01T09:23:42.761Z,1003.34
2018-05-01T09:24:42.823Z,1003.15
2018-05-01T09:25:42.883Z,1003.08
2018-05-01T09:26:42.942Z,1003.35
2018-05-01T09:27:43.005Z,1003.22
2018-05-01T09:28:43.065Z,1003.18
2018-05-01T09:29:43.128Z,1003.09
2018-05-01T09:30:43.185Z,1003.20
2018-05-01T09:31:43.249Z,1003.26
2018-05-01T09:32:43.307Z,1003.20
2018-05-01T09:33:43.371Z,1003.09
2018-05-01T09:34:43.428Z,1003.23
2018-05-01T09:35:43.490Z,1003.01
2018-05-01T09:36:43.549Z,1003.15
2018-05-01T09:37:43.609Z,1003.34
2018-05-01T09:38:43.670Z,1003.21
2018-05-01T09:39:43.729Z,1003.27
2018-05-01T09:40:43.790Z,1003.17
2018-05-01T09:41:43.855Z,1003.33
2018-05-01T09:42:43.911Z,1003.26
2018-05-01T09:43:43.976Z,1003.24
2018-05-01T09:44:44.280Z,1003.31
2018-05-01T09:45:44.095Z,1003.30
2018-05-01T09:46:44.153Z,1003.31
2018-05-01T09:47:44.214Z,1003.42
2018-05-01T09:48:44.275Z,1003.47
2018-05-01T09:49:44.337Z,1003.39
2018-05-01T09:50:44.396Z,1003.31
2018-05-01T09:51:44.457Z,1003.36
2018-05-01T09:52:44.517Z,1003.41
2018-05-01T09:53:44.578Z,1003.27
2018-05-01T09:54:44.640Z,1003.34
2018-05-01T09:55:44.700Z,1003.14
2018-05-01T09:56:44.762Z,1003.18
2018-05-01T09:57:44.823Z,1003.26
2018-05-01T09:58:44.884Z,1003.25
2018-05-01T09:59:44.944Z,1003.41
2018-05-01T10:00:45.007Z,1003.38
2018-05-01T10:01:45.150Z,1003.29
2018-05-01T10:02:45.130Z,1003.41
2018-05-01T10:03:45.441Z,1003.57
2018-05-01T10:04:45.251Z,1003.64
2018-05-01T10:05:45.312Z,1003.58
2018-05-01T10:06:45.374Z,1003.42
2018-05-01T10:07:45.435Z,1003.12
2018-05-01T10:08:45.496Z,1003.58
2018-05-01T10:09:45.557Z,1003.39
2018-05-01T10:10:45.619Z,1003.37
2018-05-01T10:11:45.681Z,1003.45
2018-05-01T10:12:45.743Z,1003.46
2018-05-01T10:13:45.806Z,1003.50
2018-05-01T10:14:45.865Z,1003.52
2018-05-01T10:15:45.927Z,1003.42
2018-05-01T10:16:45.988Z,1003.49
2018-05-01T10:17:46.048Z,1003.53
2018-05-01T10:18:46.109Z,1003.44
2018-05-01T10:19:46.170Z,1003.47
2018-05-01T10:20:46.234Z,1003.33
2018-05-01T10:21:46.293Z,1003.44
2018-05-01T10:22:46.355Z,1003.54
2018-05-01T10:23:46.415Z,1003.56
2018-05-01T10:24:46.476Z,1003.61
2018-05-01T10:25:46.537Z,1003.66
2018-05-01T10:26:46.598Z,1003.70
2018-05-01T10:27:46.659Z,1003.65
2018-05-01T10:28:46.720Z,1003.73
2018-05-01T10:29:46.780Z,1003.62
2018-05-01T10:30:46.841Z,1003.72
2018-05-01T10:31:46.902Z,1003.65
2018-05-01T10:32:46.963Z,1003.66
2018-05-01T10:33:47.023Z,1003.72
2018-05-01T10:34:47.086Z,1003.67
2018-05-01T10:35:47.146Z,1003.77
2018-05-01T10:36:47.207Z,1003.73
2018-05-01T10:37:47.417Z,1003.69
2018-05-01T10:38:47.399Z,1003.60
2018-05-01T10:39:47.390Z,1003.64
2018-05-01T10:40:47.453Z,1003.62
2018-05-01T10:41:47.510Z,1003.52
2018-05-01T10:42:47.571Z,1003.65
2018-05-01T10:43:47.631Z,1003.62
2018-05-01T10:44:47.695Z,1003.65
2018-05-01T10:45:47.847Z,1003.73
2018-05-01T10:46:47.816Z,1003.71
2018-05-01T10:47:47.877Z,1003.78
2018-05-01T10:48:47.938Z,1003.76
2018-05-01T10:49:47.998Z,1003.76
2018-05-01T10:50:48.063Z,1003.70
2018-05-01T10:51:48.123Z,1003.72
2018-05-01T10:52:48.201Z,1003.80
2018-05-01T10:53:48.242Z,1003.83
2018-05-01T10:54:48.304Z,1003.94
2018-05-01T10:55:48.367Z,1003.91
2018-05-01T10:56:48.426Z,1004.07
2018-05-01T10:57:48.486Z,1004.26
2018-05-01T10:58:48.553Z,1004.39
2018-05-01T10:59:48.612Z,1003.96
2018-05-01T11:00:48.823Z,1003.92
2018-05-01T11:01:48.734Z,1003.87
2018-05-01T11:02:48.799Z,1003.90
2018-05-01T11:03:48.858Z,1004.00
2018-05-01T11:04:48.920Z,1004.15
2018-05-01T11:05:49.132Z,1003.99
2018-05-01T11:06:49.042Z,1004.30
2018-05-01T11:07:49.105Z,1003.95
2018-05-01T11:08:49.168Z,1003.88
2018-05-01T11:09:49.232Z,1004.59
2018-05-01T11:10:49.292Z,1004.03
2018-05-01T11:11:49.430Z,1004.56
2018-05-01T11:12:49.417Z,1004.43
2018-05-01T11:13:49.522Z,1004.61
2018-05-01T11:14:49.541Z,1004.69
2018-05-01T11:15:49.605Z,1003.90
2018-05-01T11:16:49.672Z,1004.07
2018-05-01T11:17:49.730Z,1003.76
2018-05-01T11:18:49.794Z,1003.86
2018-05-01T11:19:49.858Z,1003.81
2018-05-01T11:20:49.921Z,1003.74
2018-05-01T11:21:49.985Z,1003.82
2018-05-01T11:22:50.047Z,1003.91
2018-05-01T11:23:50.112Z,1003.87
2018-05-01T11:24:50.177Z,1003.83
2018-05-01T11:25:50.256Z,1003.84
2018-05-01T11:26:50.311Z,1003.82
2018-05-01T11:27:50.365Z,1003.71
2018-05-01T11:28:50.429Z,1003.66
2018-05-01T11:29:50.491Z,1003.99
2018-05-01T11:30:50.552Z,1005.18
2018-05-01T11:31:50.617Z,1004.73
2018-05-01T11:32:50.680Z,1005.34
2018-05-01T11:33:50.742Z,1003.65
2018-05-01T11:34:50.955Z,1003.57
2018-05-01T11:35:50.871Z,1003.67
2018-05-01T11:36:50.933Z,1003.56
2018-05-01T11:37:50.995Z,1003.68
2018-05-01T11:38:51.062Z,1003.79
2018-05-01T11:39:51.123Z,1003.87
2018-05-01T11:40:51.186Z,1003.83
2018-05-01T11:41:51.249Z,1003.89
2018-05-01T11:42:51.311Z,1003.88
2018-05-01T11:43:51.376Z,1003.93
2018-05-01T11:44:51.453Z,1004.69
2018-05-01T11:45:51.499Z,1004.04
2018-05-01T11:46:51.562Z,1004.06
2018-05-01T11:47:51.624Z,1004.03
2018-05-01T11:48:51.687Z,1004.38
2018-05-01T11:49:51.747Z,1004.96
2018-05-01T11:50:51.812Z,1004.00
2018-05-01T11:51:51.874Z,1004.14
2018-05-01T11:52:52.087Z,1004.12
2018-05-01T11:53:51.998Z,1004.18
2018-05-01T11:54:52.060Z,1004.24
2018-05-01T11:55:52.123Z,1004.09
2018-05-01T11:56:52.188Z,1003.91
2018-05-01T11:57:52.246Z,1003.78
2018-05-01T11:58:52.310Z,1003.72
2018-05-01T11:59:52.371Z,1003.70
2018-05-01T12:00:52.441Z,1003.69
2018-05-01T12:01:52.496Z,1003.70
2018-05-01T12:02:52.557Z,1003.66
2018-05-01T12:03:52.636Z,1003.67
2018-05-01T12:04:52.684Z,1003.64
2018-05-01T12:05:52.748Z,1003.69
2018-05-01T12:06:52.810Z,1003.74
2018-05-01T12:07:52.870Z,1003.73
2018-05-01T12:08:52.933Z,1003.89
2018-05-01T12:09:52.993Z,1003.97
2018-05-01T12:10:53.056Z,1004.03
2018-05-01T12:11:53.118Z,1004.23
2018-05-01T12:12:53.183Z,1004.65
2018-05-01T12:13:53.242Z,1004.18